createdAt,value
2022-08-24T00:02:27.031Z,1.80
2022-08-24T00:04:54.386Z,2.72
2022-08-24T00:07:27.484Z,2.22
2022-08-24T00:09:56.191Z,2.30
2022-08-24T00:12:25.048Z,2.17
2022-08-24T00:14:53.675Z,1.88
2022-08-24T00:17:21.434Z,4.03
2022-08-24T00:19:48.790Z,2.00
2022-08-24T00:22:16.131Z,2.47
2022-08-24T00:24:43.384Z,2.30
2022-08-24T00:27:11.014Z,1.88
2022-08-24T00:29:39.607Z,2.08
2022-08-24T00:32:07.536Z,1.35
2022-08-24T00:34:34.887Z,1.20
2022-08-24T00:37:02.151Z,2.53
2022-08-24T00:39:30.993Z,3.58
2022-08-24T00:41:58.567Z,2.75
2022-08-24T00:44:25.848Z,2.17
2022-08-24T00:47:05.554Z,1.33
2022-08-24T00:49:36.399Z,1.67
2022-08-24T00:52:05.715Z,2.38
2022-08-24T00:54:34.520Z,2.10
2022-08-24T00:57:03.707Z,1.20
2022-08-24T00:59:33.274Z,1.83
2022-08-24T01:02:14.295Z,2.05
2022-08-24T01:04:45.964Z,2.60
2022-08-24T01:07:13.224Z,1.80
2022-08-24T01:09:40.727Z,1.88
2022-08-24T01:12:08.345Z,1.45
2022-08-24T01:14:35.677Z,2.28
2022-08-24T01:17:04.383Z,4.65
2022-08-24T01:19:35.012Z,1.63
2022-08-24T01:22:06.894Z,3.03
2022-08-24T01:24:36.908Z,2.35
2022-08-24T01:27:04.696Z,2.72
2022-08-24T01:29:33.535Z,2.03
2022-08-24T01:32:00.815Z,1.80
2022-08-24T01:34:28.203Z,2.50
2022-08-24T01:36:56.511Z,4.82
2022-08-24T01:39:26.574Z,2.65
2022-08-24T01:41:55.292Z,2.95
2022-08-24T01:44:24.112Z,1.52
2022-08-24T01:46:52.730Z,1.52
2022-08-24T01:49:21.152Z,1.27
2022-08-24T01:51:48.659Z,4.43
2022-08-24T01:54:16.220Z,1.95
2022-08-24T01:56:44.724Z,2.80
2022-08-24T01:59:14.367Z,1.75
2022-08-24T02:01:47.255Z,3.95
2022-08-24T02:04:17.589Z,5.72
2022-08-24T02:06:48.809Z,3.40
2022-08-24T02:09:17.659Z,1.70
2022-08-24T02:11:45.280Z,5.25
2022-08-24T02:14:15.253Z,2.30
2022-08-24T02:16:43.231Z,4.63
2022-08-24T02:19:10.893Z,2.85
2022-08-24T02:21:38.439Z,2.15
2022-08-24T02:24:07.303Z,2.58
2022-08-24T02:26:34.697Z,3.65
2022-08-24T02:29:08.140Z,2.72
2022-08-24T02:31:36.904Z,4.80
2022-08-24T02:34:04.529Z,2.58
2022-08-24T02:36:32.087Z,2.08
2022-08-24T02:39:00.242Z,3.50
2022-08-24T02:41:31.686Z,4.38
2022-08-24T02:44:17.696Z,2.70
2022-08-24T02:46:46.483Z,2.58
2022-08-24T02:49:14.056Z,2.53
2022-08-24T02:51:44.995Z,2.40
2022-08-24T02:54:16.874Z,2.10
2022-08-24T02:56:44.337Z,3.33
2022-08-24T02:59:11.660Z,3.53
2022-08-24T03:01:39.026Z,10.52
2022-08-24T03:04:07.911Z,2.95
2022-08-24T03:06:35.322Z,2.65
2022-08-24T03:09:02.695Z,3.53
2022-08-24T03:11:30.098Z,3.88
2022-08-24T03:13:58.109Z,3.25
2022-08-24T03:16:26.192Z,2.75
2022-08-24T03:18:53.602Z,4.60
2022-08-24T03:21:31.013Z,4.85
2022-08-24T03:23:59.972Z,3.33
2022-08-24T03:26:45.993Z,6.80
2022-08-24T03:29:13.871Z,3.78
2022-08-24T03:31:43.535Z,5.03
2022-08-24T03:34:10.889Z,5.05
2022-08-24T03:36:39.643Z,2.90
2022-08-24T03:39:07.635Z,2.40
2022-08-24T03:41:53.810Z,4.05
2022-08-24T03:44:23.238Z,3.35
2022-08-24T03:46:50.961Z,3.90
2022-08-24T03:49:18.364Z,4.15
2022-08-24T03:58:05.763Z,3.35
2022-08-24T04:00:33.434Z,3.20
2022-08-24T04:03:01.627Z,3.33
2022-08-24T04:05:35.113Z,3.78
2022-08-24T04:08:03.091Z,3.25
2022-08-24T04:13:14.586Z,5.30
2022-08-24T04:15:42.961Z,3.78
2022-08-24T04:18:10.814Z,2.63
2022-08-24T04:20:38.832Z,2.30
2022-08-24T04:23:06.177Z,5.03
2022-08-24T04:25:42.079Z,2.53
2022-08-24T04:28:13.094Z,4.60
2022-08-24T04:30:52.220Z,3.35
2022-08-24T04:33:30.904Z,3.22
2022-08-24T04:35:58.403Z,3.55
2022-08-24T04:38:28.710Z,2.58
2022-08-24T04:41:15.330Z,2.03
2022-08-24T04:43:43.143Z,2.22
2022-08-24T04:46:12.906Z,3.45
2022-08-24T04:48:40.222Z,2.63
2022-08-24T04:51:13.837Z,3.38
2022-08-24T04:53:41.983Z,3.20
2022-08-24T04:56:11.163Z,3.10
2022-08-24T04:58:38.440Z,4.03
2022-08-24T05:01:10.659Z,2.75
2022-08-24T05:03:55.976Z,4.03
2022-08-24T05:06:42.988Z,4.43
2022-08-24T05:09:10.897Z,2.83
2022-08-24T05:11:39.420Z,2.83
2022-08-24T05:14:11.116Z,5.32
2022-08-24T05:16:38.593Z,4.45
2022-08-24T05:19:07.375Z,3.78
2022-08-24T05:21:34.936Z,6.68
2022-08-24T05:24:02.593Z,4.65
2022-08-24T05:26:32.442Z,5.97
2022-08-24T05:29:02.032Z,3.75
2022-08-24T05:31:43.692Z,4.38
2022-08-24T05:34:15.980Z,7.82
2022-08-24T05:36:43.662Z,4.68
2022-08-24T05:39:23.755Z,4.15
2022-08-24T05:41:55.394Z,2.28
2022-08-24T05:44:30.678Z,3.58
2022-08-24T05:47:00.197Z,3.28
2022-08-24T05:49:29.475Z,5.78
2022-08-24T05:51:56.720Z,2.67
2022-08-24T05:54:24.026Z,6.85
2022-08-24T05:56:56.063Z,3.75
2022-08-24T05:59:23.810Z,6.50
2022-08-24T06:01:52.386Z,6.13
2022-08-24T06:04:19.790Z,6.13
2022-08-24T06:06:48.955Z,3.35
2022-08-24T06:09:17.240Z,4.97
2022-08-24T06:11:45.598Z,6.28
2022-08-24T06:14:15.402Z,7.82
2022-08-24T06:16:51.129Z,5.88
2022-08-24T06:19:24.439Z,3.85
2022-08-24T06:21:55.020Z,3.58
2022-08-24T06:24:26.040Z,4.05
2022-08-24T06:26:56.016Z,2.60
2022-08-24T06:29:23.508Z,7.80
2022-08-24T06:32:00.391Z,4.10
2022-08-24T06:34:27.834Z,17.25
2022-08-24T06:36:56.566Z,3.92
2022-08-24T06:39:26.367Z,8.57
2022-08-24T06:41:55.655Z,5.43
2022-08-24T06:44:30.556Z,5.97
2022-08-24T06:47:06.960Z,7.75
2022-08-24T06:49:34.489Z,5.32
2022-08-24T06:52:05.348Z,6.60
2022-08-24T06:54:32.727Z,7.18
2022-08-24T06:57:02.449Z,6.43
2022-08-24T06:59:29.813Z,5.50
2022-08-24T07:01:57.491Z,5.38
2022-08-24T07:04:28.364Z,6.47
2022-08-24T07:06:58.335Z,5.30
2022-08-24T07:09:27.176Z,5.47
2022-08-24T07:11:54.730Z,4.38
2022-08-24T07:14:22.004Z,5.35
2022-08-24T07:16:50.318Z,6.68
2022-08-24T07:19:18.195Z,5.80
2022-08-24T07:21:47.101Z,7.88
2022-08-24T07:24:14.987Z,7.20
2022-08-24T07:26:43.632Z,6.50
2022-08-24T07:29:30.653Z,7.03
2022-08-24T07:32:01.721Z,6.35
2022-08-24T07:34:37.441Z,5.57
2022-08-24T07:37:06.323Z,9.60
2022-08-24T07:39:35.375Z,8.65
2022-08-24T07:42:14.053Z,5.70
2022-08-24T07:44:45.513Z,5.85
2022-08-24T07:47:36.970Z,6.70
2022-08-24T07:50:02.596Z,9.48
2022-08-24T07:52:30.326Z,7.07
2022-08-24T07:54:57.599Z,6.97
2022-08-24T07:57:26.300Z,9.63
2022-08-24T07:59:55.418Z,4.28
2022-08-24T08:02:22.834Z,5.50
2022-08-24T08:04:55.169Z,7.05
2022-08-24T08:07:22.563Z,7.30
2022-08-24T08:09:50.947Z,3.90
2022-08-24T08:12:18.647Z,6.05
2022-08-24T08:14:56.438Z,8.00
2022-08-24T08:17:23.907Z,4.30
2022-08-24T08:19:51.166Z,4.43
2022-08-24T08:22:18.620Z,5.07
2022-08-24T08:25:11.906Z,5.28
2022-08-24T08:27:39.315Z,4.30
2022-08-24T08:30:09.138Z,4.25
2022-08-24T08:32:37.012Z,2.08
2022-08-24T08:35:04.595Z,3.30
2022-08-24T08:40:01.665Z,4.40
2022-08-24T08:42:37.220Z,3.33
2022-08-24T08:45:15.747Z,4.20
2022-08-24T08:47:56.161Z,3.08
2022-08-24T08:50:26.911Z,3.17
2022-08-24T08:53:24.388Z,3.47
2022-08-24T08:55:58.497Z,3.15
2022-08-24T08:58:36.451Z,2.97
2022-08-24T09:01:10.259Z,2.75
2022-08-24T09:03:56.257Z,2.90
2022-08-24T09:06:48.156Z,3.67
2022-08-24T09:09:24.314Z,2.80
2022-08-24T09:12:00.930Z,1.58
2022-08-24T09:14:43.242Z,1.63
2022-08-24T09:17:19.963Z,1.98
2022-08-24T09:19:56.012Z,5.20
2022-08-24T09:22:23.556Z,2.80
2022-08-24T09:25:05.836Z,3.05
2022-08-24T09:27:51.594Z,1.50
2022-08-24T09:30:20.086Z,2.05
2022-08-24T09:33:00.505Z,2.78
2022-08-24T09:35:35.911Z,1.75
2022-08-24T09:38:08.427Z,2.78
2022-08-24T09:40:44.767Z,12.13
2022-08-24T09:43:29.135Z,1.15
2022-08-24T09:46:30.728Z,6.80
2022-08-24T09:49:27.714Z,1.20
2022-08-24T09:52:09.130Z,4.00
2022-08-24T09:54:51.321Z,1.55
2022-08-24T09:57:57.397Z,1.13
2022-08-24T10:00:24.776Z,0.90
2022-08-24T10:03:10.017Z,3.40
2022-08-24T10:05:56.027Z,3.17
2022-08-24T10:08:34.187Z,2.40
2022-08-24T10:11:06.146Z,1.30
2022-08-24T10:13:40.693Z,1.00
2022-08-24T10:16:14.625Z,1.85
2022-08-24T10:21:47.354Z,1.20
2022-08-24T10:24:29.570Z,1.55
2022-08-24T10:27:09.099Z,1.98
2022-08-24T10:29:42.936Z,1.63
2022-08-24T10:32:19.423Z,3.72
2022-08-24T10:38:46.978Z,0.70
2022-08-24T10:41:29.976Z,2.25
2022-08-24T10:44:07.855Z,1.73
2022-08-24T10:46:48.906Z,1.45
2022-08-24T10:49:43.307Z,0.85
2022-08-24T10:52:27.647Z,1.45
2022-08-24T10:54:55.044Z,1.45
2022-08-24T10:57:27.348Z,2.05
2022-08-24T11:00:00.119Z,1.25
2022-08-24T11:02:30.090Z,1.20
2022-08-24T11:04:57.835Z,2.22
2022-08-24T11:07:25.262Z,1.17
2022-08-24T11:09:53.649Z,3.38
2022-08-24T11:12:31.968Z,1.98
2022-08-24T11:15:02.393Z,1.58
2022-08-24T11:17:31.106Z,5.05
2022-08-24T11:19:58.984Z,1.75
2022-08-24T11:22:31.351Z,1.20
2022-08-24T11:24:59.621Z,3.75
2022-08-24T11:27:30.216Z,1.23
2022-08-24T11:30:00.298Z,1.48
2022-08-24T11:32:31.452Z,1.52
2022-08-24T11:35:02.718Z,6.53
2022-08-24T11:37:32.559Z,2.45
2022-08-24T11:40:00.456Z,1.55
2022-08-24T11:42:31.611Z,3.40
2022-08-24T11:45:01.795Z,3.00
2022-08-24T11:47:46.723Z,2.33
2022-08-24T11:50:31.761Z,2.50
2022-08-24T11:53:12.253Z,4.15
2022-08-24T11:55:47.258Z,3.80
2022-08-24T12:01:05.797Z,4.82
2022-08-24T12:03:43.528Z,3.33
2022-08-24T12:06:16.297Z,2.95
2022-08-24T12:08:51.519Z,1.33
2022-08-24T12:11:26.522Z,1.55
2022-08-24T12:13:59.129Z,1.65
2022-08-24T12:16:41.677Z,4.82
2022-08-24T12:19:12.498Z,2.83
2022-08-24T12:21:41.569Z,3.90
2022-08-24T12:24:14.200Z,3.72
2022-08-24T12:26:42.849Z,2.60
2022-08-24T12:29:11.671Z,4.65
2022-08-24T12:31:41.695Z,3.88
2022-08-24T12:34:11.477Z,5.35
2022-08-24T12:36:42.247Z,2.13
2022-08-24T12:39:13.234Z,1.23
2022-08-24T12:41:48.903Z,3.20
2022-08-24T12:44:16.826Z,3.40
2022-08-24T12:46:44.394Z,2.78
2022-08-24T12:49:15.276Z,1.23
2022-08-24T12:51:50.280Z,3.40
2022-08-24T12:54:33.592Z,3.88
2022-08-24T12:57:07.647Z,3.08
2022-08-24T12:59:37.860Z,1.10
2022-08-24T13:02:07.457Z,3.33
2022-08-24T13:04:37.365Z,0.98
2022-08-24T13:07:07.167Z,2.05
2022-08-24T13:09:37.276Z,1.50
2022-08-24T13:12:24.303Z,2.30
2022-08-24T13:14:56.781Z,1.45
2022-08-24T13:17:40.819Z,1.60
2022-08-24T13:20:28.802Z,1.30
2022-08-24T13:23:16.141Z,4.38
2022-08-24T13:25:52.407Z,1.83
2022-08-24T13:28:33.762Z,1.98
2022-08-24T13:31:04.547Z,2.85
2022-08-24T13:33:34.858Z,1.92
2022-08-24T13:36:04.710Z,1.08
2022-08-24T13:38:57.520Z,1.25
2022-08-24T13:41:43.388Z,1.45
2022-08-24T13:44:15.188Z,0.98
2022-08-24T13:46:47.721Z,1.20
2022-08-24T13:49:21.302Z,1.20
2022-08-24T13:51:51.644Z,1.00
2022-08-24T13:54:23.035Z,3.65
2022-08-24T13:56:58.542Z,2.22
2022-08-24T13:59:39.376Z,1.02
2022-08-24T14:02:11.009Z,2.58
2022-08-24T14:04:43.579Z,1.40
2022-08-24T14:07:15.708Z,1.95
2022-08-24T14:09:46.939Z,4.43
2022-08-24T14:12:32.105Z,2.20
2022-08-24T14:15:07.263Z,2.58
2022-08-24T14:17:41.986Z,3.00
2022-08-24T14:20:14.587Z,5.45
2022-08-24T14:22:55.604Z,2.83
2022-08-24T14:25:24.270Z,2.72
2022-08-24T14:27:52.483Z,0.98
2022-08-24T14:30:37.550Z,1.67
2022-08-24T14:33:09.904Z,2.10
2022-08-24T14:35:40.171Z,2.55
2022-08-24T14:38:12.739Z,3.03
2022-08-24T14:40:51.511Z,4.03
2022-08-24T14:43:27.149Z,1.50
2022-08-24T14:46:02.577Z,2.72
2022-08-24T14:48:37.672Z,2.95
2022-08-24T14:51:09.394Z,2.97
2022-08-24T14:53:51.759Z,4.18
2022-08-24T14:56:25.012Z,3.40
2022-08-24T14:58:57.820Z,3.45
2022-08-24T15:01:41.799Z,0.88
2022-08-24T15:04:36.133Z,1.77
2022-08-24T15:07:23.766Z,1.52
2022-08-24T15:09:53.305Z,2.72
2022-08-24T15:12:27.247Z,2.42
2022-08-24T15:14:55.936Z,3.17
2022-08-24T15:17:26.559Z,4.70
2022-08-24T15:19:56.462Z,1.85
2022-08-24T15:22:25.638Z,1.45
2022-08-24T15:24:58.221Z,1.17
2022-08-24T15:27:27.954Z,3.00
2022-08-24T15:29:57.373Z,1.38
2022-08-24T15:32:27.831Z,1.70
2022-08-24T15:34:58.203Z,2.72
2022-08-24T15:37:27.282Z,3.72
2022-08-24T15:39:55.934Z,2.53
2022-08-24T15:42:23.728Z,2.58
2022-08-24T15:44:51.293Z,1.73
2022-08-24T15:47:26.829Z,1.73
2022-08-24T15:49:56.167Z,2.35
2022-08-24T15:52:40.973Z,2.13
2022-08-24T15:55:15.503Z,1.75
2022-08-24T15:57:44.004Z,2.30
2022-08-24T16:00:13.544Z,1.70
2022-08-24T16:02:40.840Z,1.38
2022-08-24T16:05:14.333Z,6.43
2022-08-24T16:08:08.934Z,1.75
2022-08-24T16:10:39.098Z,1.40
2022-08-24T16:13:08.898Z,1.23
2022-08-24T16:15:45.139Z,3.58
2022-08-24T16:18:12.793Z,1.85
2022-08-24T16:20:40.099Z,2.45
2022-08-24T16:23:08.521Z,3.10
2022-08-24T16:25:38.730Z,2.88
2022-08-24T16:28:11.433Z,5.43
2022-08-24T16:30:56.501Z,1.45
2022-08-24T16:33:43.055Z,1.85
2022-08-24T16:36:13.577Z,1.23
2022-08-24T16:38:46.182Z,1.30
2022-08-24T16:41:14.170Z,1.50
2022-08-24T16:43:42.839Z,1.58
2022-08-24T16:46:11.601Z,1.83
2022-08-24T16:48:39.484Z,2.28
2022-08-24T16:51:06.981Z,2.40
2022-08-24T16:53:34.319Z,5.43
2022-08-24T16:56:01.896Z,1.08
2022-08-24T16:58:31.217Z,2.47
2022-08-24T17:01:00.254Z,1.58
2022-08-24T17:03:27.990Z,1.83
2022-08-24T17:05:56.019Z,4.50
2022-08-24T17:08:23.595Z,1.80
2022-08-24T17:10:50.872Z,3.28
2022-08-24T17:13:33.325Z,1.85
2022-08-24T17:16:07.113Z,2.80
2022-08-24T17:18:34.539Z,3.45
2022-08-24T17:21:01.771Z,2.63
2022-08-24T17:23:29.022Z,6.05
2022-08-24T17:25:56.262Z,5.90
2022-08-24T17:28:23.681Z,2.38
2022-08-24T17:30:51.691Z,1.45
2022-08-24T17:33:20.340Z,1.83
2022-08-24T17:35:47.644Z,2.15
2022-08-24T17:38:14.944Z,4.47
2022-08-24T17:40:42.271Z,2.35
2022-08-24T17:43:09.504Z,1.15
2022-08-24T17:45:36.778Z,3.75
2022-08-24T17:48:04.457Z,4.13
2022-08-24T17:50:33.052Z,2.22
2022-08-24T17:53:00.547Z,3.45
2022-08-24T17:55:28.103Z,3.47
2022-08-24T17:57:55.362Z,2.90
2022-08-24T18:00:22.740Z,1.83
2022-08-24T18:05:50.199Z,1.92
2022-08-24T18:08:17.591Z,4.45
2022-08-24T18:10:44.888Z,4.38
2022-08-24T18:13:15.072Z,3.35
2022-08-24T18:15:42.382Z,3.75
2022-08-24T18:18:11.392Z,1.83
2022-08-24T18:20:39.562Z,2.70
2022-08-24T18:23:25.779Z,2.30
2022-08-24T18:29:06.352Z,2.25
2022-08-24T18:31:36.731Z,3.28
2022-08-24T18:40:52.333Z,4.63
2022-08-24T18:43:22.991Z,3.67
2022-08-24T18:45:50.442Z,3.08
2022-08-24T18:48:17.755Z,2.45
2022-08-24T18:50:48.478Z,4.50
2022-08-24T18:53:15.919Z,3.03
2022-08-24T18:55:43.496Z,2.47
2022-08-24T18:58:10.822Z,3.13
2022-08-24T19:00:39.992Z,2.22
2022-08-24T19:03:07.965Z,3.58
2022-08-24T19:05:35.402Z,1.88
2022-08-24T19:10:40.315Z,2.30
2022-08-24T19:13:08.522Z,4.47
2022-08-24T19:15:39.231Z,4.22
2022-08-24T19:18:09.781Z,5.68
2022-08-24T19:20:37.936Z,4.60
2022-08-24T19:23:07.784Z,4.50
2022-08-24T19:25:35.316Z,3.22
2022-08-24T19:28:03.012Z,3.65
2022-08-24T19:30:30.301Z,3.97
2022-08-24T19:32:57.716Z,4.07
2022-08-24T19:35:27.107Z,4.25
2022-08-24T19:37:54.378Z,2.90
2022-08-24T19:40:22.001Z,3.67
2022-08-24T19:42:49.766Z,9.43
2022-08-24T19:45:18.280Z,4.35
2022-08-24T19:47:45.547Z,4.13
2022-08-24T19:50:12.907Z,3.83
2022-08-24T19:52:41.939Z,2.30
2022-08-24T19:55:15.279Z,3.83
2022-08-24T19:57:43.655Z,2.17
2022-08-24T20:00:21.826Z,3.72
2022-08-24T20:02:50.852Z,2.92
2022-08-24T20:05:19.831Z,4.28
2022-08-24T20:07:48.526Z,2.65
2022-08-24T20:10:16.373Z,3.75
2022-08-24T20:12:43.617Z,4.55
2022-08-24T20:15:11.472Z,6.78
2022-08-24T20:17:38.729Z,2.92
2022-08-24T20:20:06.870Z,2.92
2022-08-24T20:22:34.108Z,4.35
2022-08-24T20:25:02.779Z,5.35
2022-08-24T20:27:30.147Z,5.88
2022-08-24T20:29:57.731Z,4.35
2022-08-24T20:32:25.271Z,4.65
2022-08-24T20:34:52.768Z,3.50
2022-08-24T20:37:22.979Z,5.45
2022-08-24T20:39:50.395Z,4.70
2022-08-24T20:42:21.367Z,4.85
2022-08-24T20:44:48.911Z,3.13
2022-08-24T20:47:16.759Z,7.00
2022-08-24T20:49:44.174Z,5.63
2022-08-24T20:52:11.452Z,5.10
2022-08-24T20:54:39.834Z,4.95
2022-08-24T20:57:08.048Z,4.57
2022-08-24T20:59:36.734Z,5.53
2022-08-24T21:02:04.766Z,4.72
2022-08-24T21:04:32.010Z,5.82
2022-08-24T21:06:59.511Z,7.30
2022-08-24T21:09:26.827Z,5.63
2022-08-24T21:11:54.584Z,7.22
2022-08-24T21:14:21.898Z,4.30
2022-08-24T21:16:50.506Z,9.63
2022-08-24T21:19:18.057Z,6.40
2022-08-24T21:21:45.600Z,4.35
2022-08-24T21:24:12.863Z,2.95
2022-08-24T21:26:40.689Z,3.40
2022-08-24T21:29:08.726Z,5.13
2022-08-24T21:31:36.290Z,5.82
2022-08-24T21:34:05.022Z,6.20
2022-08-24T21:36:32.287Z,4.93
2022-08-24T21:38:59.579Z,7.30
2022-08-24T21:41:26.939Z,6.90
2022-08-24T21:43:54.165Z,5.40
2022-08-24T21:46:22.134Z,5.05
2022-08-24T21:48:49.426Z,5.55
2022-08-24T21:51:18.075Z,4.57
2022-08-24T21:53:45.348Z,6.50
2022-08-24T21:56:12.871Z,8.68
2022-08-24T21:58:40.191Z,6.55
2022-08-24T22:01:07.448Z,5.53
2022-08-24T22:03:40.257Z,7.03
2022-08-24T22:06:08.111Z,4.45
2022-08-24T22:08:36.920Z,10.57
2022-08-24T22:11:04.466Z,6.55
2022-08-24T22:13:31.767Z,7.20
2022-08-24T22:15:59.266Z,10.55
2022-08-24T22:18:26.796Z,10.43
2022-08-24T22:20:54.072Z,8.77
2022-08-24T22:23:21.372Z,5.32
2022-08-24T22:25:51.887Z,3.30
2022-08-24T22:28:19.190Z,7.20
2022-08-24T22:30:46.531Z,8.15
2022-08-24T22:33:14.035Z,6.82
2022-08-24T22:35:44.762Z,10.55
2022-08-24T22:38:12.772Z,10.75
2022-08-24T22:40:40.173Z,8.77
2022-08-24T22:43:09.173Z,11.98
2022-08-24T22:45:36.448Z,9.15
2022-08-24T22:48:04.015Z,9.32
2022-08-24T22:50:31.299Z,9.85
2022-08-24T22:52:59.022Z,8.68
2022-08-24T22:55:26.296Z,8.00
2022-08-24T22:57:53.566Z,7.95
2022-08-24T23:00:22.466Z,7.53
2022-08-24T23:02:49.673Z,8.30
2022-08-24T23:05:16.986Z,7.32
2022-08-24T23:07:44.188Z,8.57
2022-08-24T23:10:11.663Z,7.32
2022-08-24T23:12:38.904Z,10.55
2022-08-24T23:15:06.709Z,6.30
2022-08-24T23:17:35.344Z,10.50
2022-08-24T23:20:02.599Z,10.30
2022-08-24T23:22:31.444Z,10.73
2022-08-24T23:24:59.217Z,10.35
2022-08-24T23:27:37.770Z,9.23
2022-08-24T23:30:19.092Z,11.70
2022-08-24T23:32:49.733Z,10.65
2022-08-24T23:35:17.016Z,12.45
2022-08-24T23:37:44.331Z,7.97
2022-08-24T23:40:11.928Z,12.52
2022-08-24T23:42:39.468Z,12.00
2022-08-24T23:45:07.778Z,11.60
2022-08-24T23:47:38.415Z,12.55
2022-08-24T23:50:10.743Z,12.77
2022-08-24T23:52:38.491Z,13.13
2022-08-24T23:55:20.648Z,13.60
2022-08-24T23:57:49.134Z,14.38
